sensor_id;sensor_type;location;lat;lon;timestamp;P1;durP1;ratioP1;P2;durP2;ratioP2
15381;SDS011;7789;51.364;12.358;2023-11-21T00:01:44;2.97;;;1.90;;
15381;SDS011;7789;51.364;12.358;2023-11-21T00:06:47;2.60;;;2.30;;
15381;SDS011;7789;51.364;12.358;2023-11-21T00:11:52;5.53;;;2.50;;
15381;SDS011;7789;51.364;12.358;2023-11-21T00:16:56;2.70;;;2.27;;
15381;SDS011;7789;51.364;12.358;2023-11-21T00:21:59;4.00;;;2.00;;
15381;SDS011;7789;51.364;12.358;2023-11-21T00:27:04;5.97;;;2.53;;
15381;SDS011;7789;51.364;12.358;2023-11-21T00:32:07;3.23;;;2.17;;
15381;SDS011;7789;51.364;12.358;2023-11-21T00:37:11;3.40;;;2.00;;
15381;SDS011;7789;51.364;12.358;2023-11-21T00:42:15;3.37;;;2.50;;
15381;SDS011;7789;51.364;12.358;2023-11-21T00:47:19;3.57;;;2.90;;
15381;SDS011;7789;51.364;12.358;2023-11-21T00:52:24;3.87;;;2.63;;
15381;SDS011;7789;51.364;12.358;2023-11-21T00:57:29;4.30;;;2.53;;
15381;SDS011;7789;51.364;12.358;2023-11-21T01:02:32;2.97;;;2.50;;
15381;SDS011;7789;51.364;12.358;2023-11-21T01:07:39;4.77;;;2.33;;
15381;SDS011;7789;51.364;12.358;2023-11-21T01:13:03;3.77;;;2.30;;
15381;SDS011;7789;51.364;12.358;2023-11-21T01:18:15;3.83;;;2.17;;
15381;SDS011;7789;51.364;12.358;2023-11-21T01:23:21;3.57;;;2.60;;
15381;SDS011;7789;51.364;12.358;2023-11-21T01:28:26;4.57;;;2.67;;
15381;SDS011;7789;51.364;12.358;2023-11-21T01:33:36;6.23;;;2.80;;
15381;SDS011;7789;51.364;12.358;2023-11-21T01:38:39;9.30;;;3.10;;
15381;SDS011;7789;51.364;12.358;2023-11-21T01:43:45;3.07;;;2.47;;
15381;SDS011;7789;51.364;12.358;2023-11-21T01:48:48;6.73;;;2.40;;
15381;SDS011;7789;51.364;12.358;2023-11-21T01:53:51;4.00;;;2.10;;
15381;SDS011;7789;51.364;12.358;2023-11-21T01:58:57;4.00;;;2.30;;
15381;SDS011;7789;51.364;12.358;2023-11-21T02:04:00;2.23;;;1.90;;
15381;SDS011;7789;51.364;12.358;2023-11-21T02:09:05;6.03;;;2.40;;
15381;SDS011;7789;51.364;12.358;2023-11-21T02:14:09;2.43;;;2.10;;
15381;SDS011;7789;51.364;12.358;2023-11-21T02:19:35;5.07;;;3.10;;
15381;SDS011;7789;51.364;12.358;2023-11-21T02:24:40;7.40;;;3.27;;
15381;SDS011;7789;51.364;12.358;2023-11-21T02:29:45;5.47;;;3.00;;
15381;SDS011;7789;51.364;12.358;2023-11-21T02:34:49;6.50;;;2.70;;
15381;SDS011;7789;51.364;12.358;2023-11-21T02:39:54;7.40;;;3.67;;
15381;SDS011;7789;51.364;12.358;2023-11-21T02:44:57;4.03;;;2.40;;
15381;SDS011;7789;51.364;12.358;2023-11-21T02:50:01;5.70;;;2.90;;
15381;SDS011;7789;51.364;12.358;2023-11-21T02:55:06;7.23;;;3.23;;
15381;SDS011;7789;51.364;12.358;2023-11-21T03:00:10;6.10;;;3.40;;
15381;SDS011;7789;51.364;12.358;2023-11-21T03:05:15;3.93;;;2.80;;
15381;SDS011;7789;51.364;12.358;2023-11-21T03:10:20;7.33;;;3.20;;
15381;SDS011;7789;51.364;12.358;2023-11-21T03:15:23;4.23;;;2.60;;
15381;SDS011;7789;51.364;12.358;2023-11-21T03:20:28;5.47;;;2.60;;
15381;SDS011;7789;51.364;12.358;2023-11-21T03:25:32;5.03;;;2.70;;
15381;SDS011;7789;51.364;12.358;2023-11-21T03:30:36;5.40;;;2.60;;
15381;SDS011;7789;51.364;12.358;2023-11-21T03:35:39;6.33;;;3.20;;
15381;SDS011;7789;51.364;12.358;2023-11-21T03:40:47;3.53;;;2.73;;
15381;SDS011;7789;51.364;12.358;2023-11-21T03:45:52;4.80;;;2.77;;
15381;SDS011;7789;51.364;12.358;2023-11-21T03:50:55;6.73;;;2.30;;
15381;SDS011;7789;51.364;12.358;2023-11-21T03:56:01;4.73;;;2.63;;
15381;SDS011;7789;51.364;12.358;2023-11-21T04:01:05;4.23;;;2.17;;
15381;SDS011;7789;51.364;12.358;2023-11-21T04:06:09;4.70;;;2.53;;
15381;SDS011;7789;51.364;12.358;2023-11-21T04:11:13;3.43;;;2.10;;
15381;SDS011;7789;51.364;12.358;2023-11-21T04:16:17;5.93;;;2.57;;
15381;SDS011;7789;51.364;12.358;2023-11-21T04:21:21;3.23;;;2.33;;
15381;SDS011;7789;51.364;12.358;2023-11-21T04:26:25;3.63;;;2.10;;
15381;SDS011;7789;51.364;12.358;2023-11-21T04:31:28;4.33;;;2.20;;
15381;SDS011;7789;51.364;12.358;2023-11-21T04:36:32;3.97;;;2.30;;
15381;SDS011;7789;51.364;12.358;2023-11-21T04:41:39;6.07;;;2.43;;
15381;SDS011;7789;51.364;12.358;2023-11-21T04:46:45;7.23;;;2.27;;
15381;SDS011;7789;51.364;12.358;2023-11-21T04:51:48;5.03;;;2.23;;
15381;SDS011;7789;51.364;12.358;2023-11-21T04:56:53;3.53;;;2.67;;
15381;SDS011;7789;51.364;12.358;2023-11-21T05:01:57;5.70;;;2.50;;
15381;SDS011;7789;51.364;12.358;2023-11-21T05:07:01;3.57;;;2.27;;
15381;SDS011;7789;51.364;12.358;2023-11-21T05:12:07;6.53;;;2.50;;
15381;SDS011;7789;51.364;12.358;2023-11-21T05:17:10;4.53;;;2.47;;
15381;SDS011;7789;51.364;12.358;2023-11-21T05:22:15;5.07;;;1.77;;
15381;SDS011;7789;51.364;12.358;2023-11-21T05:27:20;3.27;;;2.27;;
15381;SDS011;7789;51.364;12.358;2023-11-21T05:32:23;8.70;;;3.20;;
15381;SDS011;7789;51.364;12.358;2023-11-21T05:37:27;6.87;;;2.90;;
15381;SDS011;7789;51.364;12.358;2023-11-21T05:42:31;6.47;;;3.47;;
15381;SDS011;7789;51.364;12.358;2023-11-21T05:47:36;4.53;;;2.83;;
15381;SDS011;7789;51.364;12.358;2023-11-21T05:52:41;6.93;;;3.33;;
15381;SDS011;7789;51.364;12.358;2023-11-21T05:57:47;5.23;;;2.90;;
15381;SDS011;7789;51.364;12.358;2023-11-21T06:02:50;5.80;;;3.07;;
15381;SDS011;7789;51.364;12.358;2023-11-21T06:07:56;6.00;;;2.70;;
15381;SDS011;7789;51.364;12.358;2023-11-21T06:13:02;5.73;;;4.07;;
15381;SDS011;7789;51.364;12.358;2023-11-21T06:18:06;4.87;;;4.23;;
15381;SDS011;7789;51.364;12.358;2023-11-21T06:23:15;9.03;;;4.70;;
15381;SDS011;7789;51.364;12.358;2023-11-21T06:28:20;9.90;;;4.27;;
15381;SDS011;7789;51.364;12.358;2023-11-21T06:33:23;8.50;;;4.10;;
15381;SDS011;7789;51.364;12.358;2023-11-21T06:38:29;7.53;;;4.63;;
15381;SDS011;7789;51.364;12.358;2023-11-21T06:43:35;7.83;;;4.57;;
15381;SDS011;7789;51.364;12.358;2023-11-21T06:48:38;9.17;;;5.03;;
15381;SDS011;7789;51.364;12.358;2023-11-21T06:53:42;16.17;;;5.63;;
15381;SDS011;7789;51.364;12.358;2023-11-21T06:58:47;10.77;;;5.70;;
15381;SDS011;7789;51.364;12.358;2023-11-21T07:03:53;14.83;;;5.93;;
15381;SDS011;7789;51.364;12.358;2023-11-21T07:08:57;11.93;;;6.20;;
15381;SDS011;7789;51.364;12.358;2023-11-21T07:14:01;9.27;;;6.33;;
15381;SDS011;7789;51.364;12.358;2023-11-21T07:19:08;11.27;;;6.50;;
15381;SDS011;7789;51.364;12.358;2023-11-21T07:24:13;9.00;;;6.77;;
15381;SDS011;7789;51.364;12.358;2023-11-21T07:29:19;14.50;;;9.40;;
15381;SDS011;7789;51.364;12.358;2023-11-21T07:34:22;21.20;;;11.77;;
15381;SDS011;7789;51.364;12.358;2023-11-21T07:39:26;22.93;;;12.70;;
15381;SDS011;7789;51.364;12.358;2023-11-21T07:44:30;24.03;;;14.40;;
15381;SDS011;7789;51.364;12.358;2023-11-21T07:49:34;19.23;;;12.50;;
15381;SDS011;7789;51.364;12.358;2023-11-21T07:54:37;17.07;;;10.70;;
15381;SDS011;7789;51.364;12.358;2023-11-21T07:59:42;17.23;;;10.80;;
15381;SDS011;7789;51.364;12.358;2023-11-21T08:04:45;13.43;;;10.33;;
15381;SDS011;7789;51.364;12.358;2023-11-21T08:09:51;16.03;;;9.47;;
15381;SDS011;7789;51.364;12.358;2023-11-21T08:14:56;16.30;;;10.80;;
15381;SDS011;7789;51.364;12.358;2023-11-21T08:20:00;15.00;;;8.60;;
15381;SDS011;7789;51.364;12.358;2023-11-21T08:25:08;11.33;;;7.77;;
15381;SDS011;7789;51.364;12.358;2023-11-21T08:30:14;10.37;;;7.20;;
15381;SDS011;7789;51.364;12.358;2023-11-21T08:35:18;9.70;;;6.63;;
15381;SDS011;7789;51.364;12.358;2023-11-21T08:40:22;7.63;;;5.90;;
15381;SDS011;7789;51.364;12.358;2023-11-21T08:45:28;6.27;;;5.57;;
15381;SDS011;7789;51.364;12.358;2023-11-21T08:50:31;6.23;;;5.10;;
15381;SDS011;7789;51.364;12.358;2023-11-21T08:55:35;5.90;;;5.03;;
15381;SDS011;7789;51.364;12.358;2023-11-21T09:00:43;6.07;;;5.43;;
15381;SDS011;7789;51.364;12.358;2023-11-21T09:05:47;7.07;;;6.03;;
15381;SDS011;7789;51.364;12.358;2023-11-21T09:10:51;8.43;;;6.93;;
15381;SDS011;7789;51.364;12.358;2023-11-21T09:15:56;9.97;;;6.83;;
15381;SDS011;7789;51.364;12.358;2023-11-21T09:20:59;9.20;;;6.97;;
15381;SDS011;7789;51.364;12.358;2023-11-21T09:26:02;9.80;;;6.53;;
15381;SDS011;7789;51.364;12.358;2023-11-21T09:31:08;8.47;;;6.77;;
15381;SDS011;7789;51.364;12.358;2023-11-21T09:36:12;7.47;;;6.37;;
15381;SDS011;7789;51.364;12.358;2023-11-21T09:41:19;10.90;;;7.00;;
15381;SDS011;7789;51.364;12.358;2023-11-21T09:46:27;7.20;;;6.30;;
15381;SDS011;7789;51.364;12.358;2023-11-21T09:51:31;7.07;;;5.37;;
15381;SDS011;7789;51.364;12.358;2023-11-21T09:56:40;5.03;;;3.30;;
15381;SDS011;7789;51.364;12.358;2023-11-21T10:01:45;3.97;;;3.27;;
15381;SDS011;7789;51.364;12.358;2023-11-21T10:06:49;4.90;;;3.70;;
15381;SDS011;7789;51.364;12.358;2023-11-21T10:11:54;4.53;;;3.60;;
15381;SDS011;7789;51.364;12.358;2023-11-21T10:17:03;6.07;;;4.17;;
15381;SDS011;7789;51.364;12.358;2023-11-21T10:22:10;4.97;;;4.40;;
15381;SDS011;7789;51.364;12.358;2023-11-21T10:27:13;5.63;;;4.30;;
15381;SDS011;7789;51.364;12.358;2023-11-21T10:32:18;4.30;;;3.90;;
15381;SDS011;7789;51.364;12.358;2023-11-21T10:37:21;4.53;;;3.77;;
15381;SDS011;7789;51.364;12.358;2023-11-21T10:42:25;4.67;;;3.70;;
15381;SDS011;7789;51.364;12.358;2023-11-21T10:47:30;5.20;;;4.13;;
15381;SDS011;7789;51.364;12.358;2023-11-21T10:52:34;4.20;;;3.80;;
15381;SDS011;7789;51.364;12.358;2023-11-21T10:57:38;4.43;;;4.03;;
15381;SDS011;7789;51.364;12.358;2023-11-21T11:02:43;4.57;;;4.00;;
15381;SDS011;7789;51.364;12.358;2023-11-21T11:07:50;5.43;;;4.50;;
15381;SDS011;7789;51.364;12.358;2023-11-21T11:12:56;6.80;;;5.30;;
15381;SDS011;7789;51.364;12.358;2023-11-21T11:18:02;8.77;;;5.60;;
15381;SDS011;7789;51.364;12.358;2023-11-21T11:23:11;7.00;;;5.40;;
15381;SDS011;7789;51.364;12.358;2023-11-21T11:28:33;8.13;;;6.20;;
15381;SDS011;7789;51.364;12.358;2023-11-21T11:33:48;8.80;;;6.90;;
15381;SDS011;7789;51.364;12.358;2023-11-21T11:38:56;8.40;;;6.40;;
15381;SDS011;7789;51.364;12.358;2023-11-21T11:44:00;8.80;;;6.40;;
15381;SDS011;7789;51.364;12.358;2023-11-21T11:49:05;10.80;;;7.13;;
15381;SDS011;7789;51.364;12.358;2023-11-21T11:54:09;11.43;;;8.73;;
15381;SDS011;7789;51.364;12.358;2023-11-21T11:59:13;9.50;;;7.47;;
15381;SDS011;7789;51.364;12.358;2023-11-21T12:04:27;10.13;;;6.57;;
15381;SDS011;7789;51.364;12.358;2023-11-21T12:09:36;7.90;;;5.77;;
15381;SDS011;7789;51.364;12.358;2023-11-21T12:14:40;8.60;;;5.90;;
15381;SDS011;7789;51.364;12.358;2023-11-21T12:19:45;9.47;;;5.50;;
15381;SDS011;7789;51.364;12.358;2023-11-21T12:24:48;6.90;;;4.73;;
15381;SDS011;7789;51.364;12.358;2023-11-21T12:29:51;6.00;;;4.47;;
15381;SDS011;7789;51.364;12.358;2023-11-21T12:34:59;5.47;;;4.30;;
15381;SDS011;7789;51.364;12.358;2023-11-21T12:40:05;8.17;;;5.37;;
15381;SDS011;7789;51.364;12.358;2023-11-21T12:45:20;10.27;;;7.53;;
15381;SDS011;7789;51.364;12.358;2023-11-21T12:50:31;10.13;;;7.43;;
15381;SDS011;7789;51.364;12.358;2023-11-21T12:55:35;10.77;;;7.93;;
15381;SDS011;7789;51.364;12.358;2023-11-21T13:00:42;10.23;;;7.03;;
15381;SDS011;7789;51.364;12.358;2023-11-21T13:05:47;10.50;;;6.93;;
15381;SDS011;7789;51.364;12.358;2023-11-21T13:10:54;9.80;;;7.30;;
15381;SDS011;7789;51.364;12.358;2023-11-21T13:16:00;8.60;;;6.83;;
15381;SDS011;7789;51.364;12.358;2023-11-21T13:21:08;9.50;;;7.50;;
15381;SDS011;7789;51.364;12.358;2023-11-21T13:26:15;9.30;;;7.37;;
15381;SDS011;7789;51.364;12.358;2023-11-21T13:31:18;11.10;;;6.93;;
15381;SDS011;7789;51.364;12.358;2023-11-21T13:36:26;8.00;;;6.33;;
15381;SDS011;7789;51.364;12.358;2023-11-21T13:41:34;8.23;;;6.13;;
15381;SDS011;7789;51.364;12.358;2023-11-21T13:46:40;8.87;;;6.50;;
15381;SDS011;7789;51.364;12.358;2023-11-21T13:51:45;8.60;;;5.87;;
15381;SDS011;7789;51.364;12.358;2023-11-21T13:56:54;8.93;;;5.53;;
15381;SDS011;7789;51.364;12.358;2023-11-21T14:01:57;7.47;;;5.17;;
15381;SDS011;7789;51.364;12.358;2023-11-21T14:07:03;7.77;;;4.33;;
15381;SDS011;7789;51.364;12.358;2023-11-21T14:12:22;4.87;;;3.63;;
15381;SDS011;7789;51.364;12.358;2023-11-21T14:17:25;3.40;;;2.80;;
15381;SDS011;7789;51.364;12.358;2023-11-21T14:22:30;3.07;;;2.77;;
15381;SDS011;7789;51.364;12.358;2023-11-21T14:27:33;4.07;;;3.50;;
15381;SDS011;7789;51.364;12.358;2023-11-21T14:32:37;5.03;;;3.60;;
15381;SDS011;7789;51.364;12.358;2023-11-21T14:37:42;3.37;;;2.90;;
15381;SDS011;7789;51.364;12.358;2023-11-21T14:42:46;3.30;;;3.00;;
15381;SDS011;7789;51.364;12.358;2023-11-21T14:47:49;4.07;;;3.23;;
15381;SDS011;7789;51.364;12.358;2023-11-21T14:53:01;3.37;;;3.07;;
15381;SDS011;7789;51.364;12.358;2023-11-21T14:58:07;3.37;;;3.03;;
15381;SDS011;7789;51.364;12.358;2023-11-21T15:03:14;4.13;;;3.03;;
15381;SDS011;7789;51.364;12.358;2023-11-21T15:08:39;3.07;;;2.63;;
15381;SDS011;7789;51.364;12.358;2023-11-21T15:13:45;5.37;;;3.80;;
15381;SDS011;7789;51.364;12.358;2023-11-21T15:18:50;3.53;;;3.13;;
15381;SDS011;7789;51.364;12.358;2023-11-21T15:23:54;4.93;;;3.67;;
15381;SDS011;7789;51.364;12.358;2023-11-21T15:28:58;3.43;;;2.80;;
15381;SDS011;7789;51.364;12.358;2023-11-21T15:34:02;3.70;;;3.30;;
15381;SDS011;7789;51.364;12.358;2023-11-21T15:39:08;2.80;;;2.50;;
15381;SDS011;7789;51.364;12.358;2023-11-21T15:44:12;4.57;;;3.10;;
15381;SDS011;7789;51.364;12.358;2023-11-21T15:49:16;5.80;;;3.70;;
15381;SDS011;7789;51.364;12.358;2023-11-21T15:54:25;5.50;;;3.40;;
15381;SDS011;7789;51.364;12.358;2023-11-21T15:59:31;5.07;;;3.73;;
15381;SDS011;7789;51.364;12.358;2023-11-21T16:04:35;3.57;;;3.27;;
15381;SDS011;7789;51.364;12.358;2023-11-21T16:09:41;5.70;;;3.30;;
15381;SDS011;7789;51.364;12.358;2023-11-21T16:14:44;6.00;;;4.07;;
15381;SDS011;7789;51.364;12.358;2023-11-21T16:19:49;4.53;;;3.57;;
15381;SDS011;7789;51.364;12.358;2023-11-21T16:24:56;4.40;;;3.10;;
15381;SDS011;7789;51.364;12.358;2023-11-21T16:29:59;3.93;;;3.50;;
15381;SDS011;7789;51.364;12.358;2023-11-21T16:35:05;4.00;;;3.60;;
15381;SDS011;7789;51.364;12.358;2023-11-21T16:40:15;5.60;;;4.20;;
15381;SDS011;7789;51.364;12.358;2023-11-21T16:45:23;5.63;;;3.90;;
15381;SDS011;7789;51.364;12.358;2023-11-21T16:50:27;3.93;;;3.47;;
15381;SDS011;7789;51.364;12.358;2023-11-21T16:55:35;4.10;;;3.70;;
15381;SDS011;7789;51.364;12.358;2023-11-21T17:00:39;4.10;;;3.67;;
15381;SDS011;7789;51.364;12.358;2023-11-21T17:05:43;4.53;;;4.07;;
15381;SDS011;7789;51.364;12.358;2023-11-21T17:10:48;6.67;;;4.50;;
15381;SDS011;7789;51.364;12.358;2023-11-21T17:15:52;7.00;;;5.53;;
15381;SDS011;7789;51.364;12.358;2023-11-21T17:20:56;6.20;;;5.40;;
15381;SDS011;7789;51.364;12.358;2023-11-21T17:26:01;6.23;;;5.27;;
15381;SDS011;7789;51.364;12.358;2023-11-21T17:31:05;8.57;;;5.90;;
15381;SDS011;7789;51.364;12.358;2023-11-21T17:36:11;6.47;;;5.40;;
15381;SDS011;7789;51.364;12.358;2023-11-21T17:41:20;8.77;;;6.67;;
15381;SDS011;7789;51.364;12.358;2023-11-21T17:46:24;7.63;;;6.00;;
15381;SDS011;7789;51.364;12.358;2023-11-21T17:51:28;7.77;;;5.77;;
15381;SDS011;7789;51.364;12.358;2023-11-21T17:56:33;7.37;;;5.83;;
15381;SDS011;7789;51.364;12.358;2023-11-21T18:01:37;6.57;;;5.37;;
15381;SDS011;7789;51.364;12.358;2023-11-21T18:06:41;7.10;;;5.87;;
15381;SDS011;7789;51.364;12.358;2023-11-21T18:11:48;5.40;;;4.87;;
15381;SDS011;7789;51.364;12.358;2023-11-21T18:16:52;5.93;;;4.93;;
15381;SDS011;7789;51.364;12.358;2023-11-21T18:21:55;6.47;;;5.47;;
15381;SDS011;7789;51.364;12.358;2023-11-21T18:27:00;5.90;;;5.30;;
15381;SDS011;7789;51.364;12.358;2023-11-21T18:32:03;7.00;;;5.50;;
15381;SDS011;7789;51.364;12.358;2023-11-21T18:37:11;6.57;;;5.47;;
15381;SDS011;7789;51.364;12.358;2023-11-21T18:42:16;7.70;;;6.10;;
15381;SDS011;7789;51.364;12.358;2023-11-21T18:47:20;5.87;;;5.10;;
15381;SDS011;7789;51.364;12.358;2023-11-21T18:52:24;7.23;;;5.67;;
15381;SDS011;7789;51.364;12.358;2023-11-21T18:57:31;6.03;;;5.20;;
15381;SDS011;7789;51.364;12.358;2023-11-21T19:02:35;8.00;;;5.53;;
15381;SDS011;7789;51.364;12.358;2023-11-21T19:07:39;33.33;;;21.23;;
15381;SDS011;7789;51.364;12.358;2023-11-21T19:12:44;8.23;;;6.83;;
15381;SDS011;7789;51.364;12.358;2023-11-21T19:17:48;8.87;;;6.30;;
15381;SDS011;7789;51.364;12.358;2023-11-21T19:22:52;11.43;;;7.93;;
15381;SDS011;7789;51.364;12.358;2023-11-21T19:27:58;10.73;;;6.93;;
15381;SDS011;7789;51.364;12.358;2023-11-21T19:33:01;9.23;;;6.50;;
15381;SDS011;7789;51.364;12.358;2023-11-21T19:38:07;9.80;;;7.37;;
15381;SDS011;7789;51.364;12.358;2023-11-21T19:43:13;11.77;;;8.40;;
15381;SDS011;7789;51.364;12.358;2023-11-21T19:48:16;12.83;;;9.03;;
15381;SDS011;7789;51.364;12.358;2023-11-21T19:53:22;19.70;;;12.17;;
15381;SDS011;7789;51.364;12.358;2023-11-21T19:58:27;20.70;;;12.73;;
15381;SDS011;7789;51.364;12.358;2023-11-21T20:03:33;17.13;;;12.17;;
15381;SDS011;7789;51.364;12.358;2023-11-21T20:08:38;19.47;;;12.83;;
15381;SDS011;7789;51.364;12.358;2023-11-21T20:13:42;18.60;;;12.47;;
15381;SDS011;7789;51.364;12.358;2023-11-21T20:18:49;17.63;;;12.67;;
15381;SDS011;7789;51.364;12.358;2023-11-21T20:23:53;18.53;;;12.53;;
15381;SDS011;7789;51.364;12.358;2023-11-21T20:29:01;18.03;;;12.80;;
15381;SDS011;7789;51.364;12.358;2023-11-21T20:34:05;18.80;;;12.90;;
15381;SDS011;7789;51.364;12.358;2023-11-21T20:39:09;16.73;;;12.20;;
15381;SDS011;7789;51.364;12.358;2023-11-21T20:44:17;16.47;;;11.20;;
15381;SDS011;7789;51.364;12.358;2023-11-21T20:49:22;15.23;;;11.87;;
15381;SDS011;7789;51.364;12.358;2023-11-21T20:54:35;17.07;;;13.13;;
15381;SDS011;7789;51.364;12.358;2023-11-21T20:59:41;16.17;;;12.53;;
15381;SDS011;7789;51.364;12.358;2023-11-21T21:04:44;16.73;;;12.30;;
15381;SDS011;7789;51.364;12.358;2023-11-21T21:09:48;15.63;;;12.00;;
15381;SDS011;7789;51.364;12.358;2023-11-21T21:14:53;15.30;;;11.90;;
15381;SDS011;7789;51.364;12.358;2023-11-21T21:19:58;12.53;;;10.23;;
15381;SDS011;7789;51.364;12.358;2023-11-21T21:25:02;17.50;;;14.77;;
15381;SDS011;7789;51.364;12.358;2023-11-21T21:30:07;11.60;;;9.13;;
15381;SDS011;7789;51.364;12.358;2023-11-21T21:35:14;11.37;;;8.53;;
15381;SDS011;7789;51.364;12.358;2023-11-21T21:40:20;10.07;;;7.67;;
15381;SDS011;7789;51.364;12.358;2023-11-21T21:45:24;9.57;;;8.10;;
15381;SDS011;7789;51.364;12.358;2023-11-21T21:50:29;9.93;;;7.33;;
15381;SDS011;7789;51.364;12.358;2023-11-21T21:55:35;10.37;;;8.10;;
15381;SDS011;7789;51.364;12.358;2023-11-21T22:00:40;10.33;;;7.50;;
15381;SDS011;7789;51.364;12.358;2023-11-21T22:05:43;9.33;;;7.37;;
15381;SDS011;7789;51.364;12.358;2023-11-21T22:10:47;9.00;;;7.53;;
15381;SDS011;7789;51.364;12.358;2023-11-21T22:15:52;9.90;;;7.77;;
15381;SDS011;7789;51.364;12.358;2023-11-21T22:20:58;9.70;;;7.63;;
15381;SDS011;7789;51.364;12.358;2023-11-21T22:26:01;10.57;;;7.97;;
15381;SDS011;7789;51.364;12.358;2023-11-21T22:31:06;10.23;;;7.90;;
15381;SDS011;7789;51.364;12.358;2023-11-21T22:36:12;11.30;;;8.27;;
15381;SDS011;7789;51.364;12.358;2023-11-21T22:41:22;10.83;;;7.27;;
15381;SDS011;7789;51.364;12.358;2023-11-21T22:46:27;11.80;;;7.40;;
15381;SDS011;7789;51.364;12.358;2023-11-21T22:51:31;10.17;;;7.43;;
15381;SDS011;7789;51.364;12.358;2023-11-21T22:56:34;11.53;;;7.73;;
15381;SDS011;7789;51.364;12.358;2023-11-21T23:01:41;11.20;;;6.73;;
15381;SDS011;7789;51.364;12.358;2023-11-21T23:06:46;7.70;;;6.27;;
15381;SDS011;7789;51.364;12.358;2023-11-21T23:11:51;10.53;;;7.50;;
15381;SDS011;7789;51.364;12.358;2023-11-21T23:16:56;9.07;;;6.63;;
15381;SDS011;7789;51.364;12.358;2023-11-21T23:21:59;7.80;;;5.33;;
15381;SDS011;7789;51.364;12.358;2023-11-21T23:27:03;7.33;;;5.43;;
15381;SDS011;7789;51.364;12.358;2023-11-21T23:32:08;8.30;;;5.10;;
15381;SDS011;7789;51.364;12.358;2023-11-21T23:37:13;6.37;;;4.37;;
15381;SDS011;7789;51.364;12.358;2023-11-21T23:42:16;5.47;;;3.83;;
15381;SDS011;7789;51.364;12.358;2023-11-21T23:47:23;6.40;;;4.83;;
15381;SDS011;7789;51.364;12.358;2023-11-21T23:52:26;5.80;;;4.63;;
15381;SDS011;7789;51.364;12.358;2023-11-21T23:57:30;5.20;;;4.40;;
